createdAt,value
2019-01-26T00:00:46.066Z,5.30
2019-01-26T00:03:27.267Z,5.30
2019-01-26T00:06:08.610Z,5.30
2019-01-26T00:08:49.607Z,5.40
2019-01-26T00:11:30.496Z,5.40
2019-01-26T00:14:11.358Z,5.40
2019-01-26T00:16:52.579Z,5.40
2019-01-26T00:19:33.351Z,5.40
2019-01-26T00:22:14.181Z,5.50
2019-01-26T00:24:55.664Z,5.60
2019-01-26T00:27:36.638Z,5.70
2019-01-26T00:30:17.512Z,5.70
2019-01-26T00:32:58.452Z,5.60
2019-01-26T00:35:39.799Z,5.60
2019-01-26T00:38:21.682Z,5.60
2019-01-26T00:41:02.265Z,5.60
2019-01-26T00:43:43.315Z,5.70
2019-01-26T00:46:28.412Z,5.70
2019-01-26T00:49:07.026Z,5.70
2019-01-26T00:55:06.918Z,5.70
2019-01-26T00:57:48.396Z,5.70
2019-01-26T01:00:29.788Z,5.70
2019-01-26T01:03:11.160Z,5.80
2019-01-26T01:05:51.991Z,5.80
2019-01-26T01:08:33.158Z,5.80
2019-01-26T01:11:13.758Z,5.80
2019-01-26T01:13:54.624Z,5.80
2019-01-26T01:16:35.941Z,5.90
2019-01-26T01:19:18.029Z,5.90
2019-01-26T01:21:59.470Z,6.00
2019-01-26T01:24:41.613Z,6.00
2019-01-26T01:27:22.608Z,6.00
2019-01-26T01:30:03.679Z,6.10
2019-01-26T01:32:45.063Z,6.10
2019-01-26T01:35:25.710Z,6.10
2019-01-26T01:38:06.851Z,6.10
2019-01-26T01:40:47.714Z,6.10
2019-01-26T01:43:29.679Z,6.10
2019-01-26T01:46:10.933Z,6.00
2019-01-26T01:48:51.732Z,6.00
2019-01-26T01:51:32.997Z,6.10
2019-01-26T01:54:15.391Z,6.10
2019-01-26T01:56:56.423Z,6.10
2019-01-26T01:59:37.255Z,6.10
2019-01-26T02:02:18.025Z,6.10
2019-01-26T02:04:58.766Z,6.10
2019-01-26T02:07:39.442Z,6.10
2019-01-26T02:10:20.411Z,6.10
2019-01-26T02:13:00.827Z,6.10
2019-01-26T02:15:41.697Z,6.20
2019-01-26T02:18:22.409Z,6.20
2019-01-26T02:21:03.593Z,6.20
2019-01-26T02:23:44.078Z,6.20
2019-01-26T02:26:25.145Z,6.30
2019-01-26T02:29:05.655Z,6.30
2019-01-26T02:31:46.565Z,6.30
2019-01-26T02:34:26.080Z,6.30
2019-01-26T02:37:06.999Z,6.30
2019-01-26T02:39:46.294Z,6.30
2019-01-26T02:42:15.882Z,6.30
2019-01-26T02:45:04.604Z,6.30
2019-01-26T02:47:34.077Z,6.30
2019-01-26T02:52:59.739Z,6.30
2019-01-26T02:55:40.469Z,6.30
2019-01-26T02:58:20.995Z,6.30
2019-01-26T03:01:01.841Z,6.30
2019-01-26T03:03:43.323Z,6.30
2019-01-26T03:06:24.515Z,6.30
2019-01-26T03:09:05.861Z,6.30
2019-01-26T03:11:46.387Z,6.30
2019-01-26T03:14:25.906Z,6.30
2019-01-26T03:17:06.659Z,6.30
2019-01-26T03:19:47.906Z,6.30
2019-01-26T03:22:29.266Z,6.30
2019-01-26T03:25:10.106Z,6.30
2019-01-26T03:27:50.594Z,6.30
2019-01-26T03:30:31.692Z,6.30
2019-01-26T03:33:12.821Z,6.30
2019-01-26T03:35:54.256Z,6.30
2019-01-26T03:38:34.919Z,6.30
2019-01-26T03:41:16.288Z,6.30
2019-01-26T03:43:56.780Z,6.30
2019-01-26T03:46:38.192Z,6.30
2019-01-26T03:49:07.554Z,6.30
2019-01-26T03:51:55.794Z,6.30
2019-01-26T03:54:37.084Z,6.30
2019-01-26T03:57:17.567Z,6.30
2019-01-26T03:59:58.856Z,6.30
2019-01-26T04:02:40.239Z,6.30
2019-01-26T04:05:20.857Z,6.30
2019-01-26T04:08:01.545Z,6.30
2019-01-26T04:10:42.284Z,6.30
2019-01-26T04:13:23.348Z,6.30
2019-01-26T04:16:04.017Z,6.30
2019-01-26T04:18:44.944Z,6.40
2019-01-26T04:21:26.326Z,6.30
2019-01-26T04:24:07.751Z,6.40
2019-01-26T04:26:48.969Z,6.40
2019-01-26T04:29:29.730Z,6.40
2019-01-26T04:32:11.292Z,6.40
2019-01-26T04:34:51.677Z,6.40
2019-01-26T04:37:32.503Z,6.50
2019-01-26T04:40:13.016Z,6.40
2019-01-26T04:42:54.107Z,6.40
2019-01-26T04:45:35.018Z,6.40
2019-01-26T04:48:16.115Z,6.40
2019-01-26T04:50:56.599Z,6.40
2019-01-26T04:53:37.678Z,6.40
2019-01-26T04:56:18.214Z,6.40
2019-01-26T04:58:59.098Z,6.40
2019-01-26T05:01:39.578Z,6.40
2019-01-26T05:04:21.044Z,6.40
2019-01-26T05:07:01.779Z,6.40
2019-01-26T05:09:42.565Z,6.40
2019-01-26T05:12:23.391Z,6.40
2019-01-26T05:15:04.244Z,6.40
2019-01-26T05:17:45.466Z,6.40
2019-01-26T05:20:26.201Z,6.40
2019-01-26T05:23:07.059Z,6.50
2019-01-26T05:25:47.859Z,6.50
2019-01-26T05:28:28.249Z,6.50
2019-01-26T05:31:08.912Z,6.50
2019-01-26T05:33:50.182Z,6.50
2019-01-26T05:36:31.547Z,6.40
2019-01-26T05:39:12.898Z,6.40
2019-01-26T05:41:54.319Z,6.50
2019-01-26T05:44:35.701Z,6.50
2019-01-26T05:47:16.565Z,6.40
2019-01-26T05:49:57.077Z,6.40
2019-01-26T05:52:37.981Z,6.40
2019-01-26T05:55:18.657Z,6.40
2019-01-26T05:57:57.907Z,6.40
2019-01-26T06:00:39.110Z,6.40
2019-01-26T06:03:19.611Z,6.40
2019-01-26T06:06:00.542Z,6.40
2019-01-26T06:08:41.829Z,6.40
2019-01-26T06:11:22.803Z,6.40
2019-01-26T06:14:03.611Z,6.30
2019-01-26T06:16:44.464Z,6.30
2019-01-26T06:19:25.079Z,6.30
2019-01-26T06:22:06.095Z,6.30
2019-01-26T06:24:47.464Z,6.30
2019-01-26T06:27:29.095Z,6.30
2019-01-26T06:30:17.341Z,6.30
2019-01-26T06:32:57.918Z,6.30
2019-01-26T06:35:38.514Z,6.30
2019-01-26T06:38:19.867Z,6.30
2019-01-26T06:41:00.464Z,6.30
2019-01-26T06:43:42.026Z,6.30
2019-01-26T06:46:23.214Z,6.30
2019-01-26T06:49:03.684Z,6.30
2019-01-26T06:52:03.516Z,6.30
2019-01-26T06:54:44.950Z,6.30
2019-01-26T06:57:26.602Z,6.30
2019-01-26T07:00:08.076Z,6.30
2019-01-26T07:02:50.518Z,6.30
2019-01-26T07:08:43.913Z,6.30
2019-01-26T07:11:25.302Z,6.30
2019-01-26T07:14:05.902Z,6.30
2019-01-26T07:16:47.296Z,6.40
2019-01-26T07:22:13.916Z,6.40
2019-01-26T07:24:54.884Z,6.40
2019-01-26T07:27:36.166Z,6.40
2019-01-26T07:30:16.899Z,6.50
2019-01-26T07:38:25.738Z,6.50
2019-01-26T07:40:55.257Z,6.50
2019-01-26T07:43:44.049Z,6.50
2019-01-26T07:46:13.619Z,6.50
2019-01-26T07:49:01.901Z,6.60
2019-01-26T07:51:50.163Z,6.60
2019-01-26T07:54:30.940Z,6.60
2019-01-26T07:57:12.349Z,6.60
2019-01-26T07:59:53.915Z,6.60
2019-01-26T08:05:47.873Z,6.70
2019-01-26T08:08:27.253Z,6.70
2019-01-26T08:11:07.986Z,6.70
2019-01-26T08:13:48.852Z,6.70
2019-01-26T08:16:29.786Z,6.70
2019-01-26T08:19:11.037Z,6.70
2019-01-26T08:21:52.470Z,6.70
2019-01-26T08:24:34.041Z,6.70
2019-01-26T08:27:15.223Z,6.70
2019-01-26T08:29:55.797Z,6.70
2019-01-26T08:32:36.634Z,6.80
2019-01-26T08:35:17.365Z,6.80
2019-01-26T08:37:58.472Z,6.80
2019-01-26T08:40:39.183Z,6.70
2019-01-26T08:43:20.081Z,6.80
2019-01-26T08:45:59.544Z,6.70
2019-01-26T08:48:40.300Z,6.70
2019-01-26T08:51:22.383Z,6.70
2019-01-26T08:54:03.407Z,6.70
2019-01-26T08:56:44.691Z,6.70
2019-01-26T08:59:26.703Z,6.70
2019-01-26T09:02:26.356Z,6.60
2019-01-26T09:05:07.099Z,6.60
2019-01-26T09:07:55.514Z,6.60
2019-01-26T09:10:36.103Z,6.70
2019-01-26T09:13:18.640Z,6.70
2019-01-26T09:15:59.359Z,6.70
2019-01-26T09:18:40.078Z,6.70
2019-01-26T09:21:21.270Z,6.70
2019-01-26T09:23:50.915Z,6.70
2019-01-26T09:26:39.234Z,6.70
2019-01-26T09:29:20.402Z,6.70
2019-01-26T09:31:59.793Z,6.70
2019-01-26T09:34:40.292Z,6.70
2019-01-26T09:37:20.758Z,6.70
2019-01-26T09:40:02.113Z,6.70
2019-01-26T09:42:43.023Z,6.70
2019-01-26T09:45:24.431Z,6.70
2019-01-26T09:48:05.160Z,6.70
2019-01-26T09:50:46.595Z,6.70
2019-01-26T09:53:27.433Z,6.80
2019-01-26T09:56:08.184Z,6.80
2019-01-26T09:58:48.850Z,6.80
2019-01-26T10:01:29.916Z,6.90
2019-01-26T10:04:10.441Z,6.90
2019-01-26T10:06:51.123Z,7.00
2019-01-26T10:09:32.089Z,7.00
2019-01-26T10:12:12.823Z,7.00
2019-01-26T10:14:53.493Z,7.10
2019-01-26T10:17:34.092Z,7.10
2019-01-26T10:20:15.446Z,7.20
2019-01-26T10:22:56.005Z,7.30
2019-01-26T10:25:37.193Z,7.30
2019-01-26T10:28:18.516Z,7.30
2019-01-26T10:31:00.596Z,7.40
2019-01-26T10:33:39.943Z,7.40
2019-01-26T10:36:25.443Z,7.40
2019-01-26T10:39:26.317Z,7.50
2019-01-26T10:42:26.522Z,7.50
2019-01-26T10:45:07.233Z,7.50
2019-01-26T10:47:48.067Z,7.60
2019-01-26T10:50:28.861Z,7.60
2019-01-26T10:53:09.685Z,7.60
2019-01-26T10:55:50.402Z,7.70
2019-01-26T10:58:30.982Z,7.80
2019-01-26T11:01:19.300Z,7.80
2019-01-26T11:04:00.588Z,7.80
2019-01-26T11:06:41.041Z,7.90
2019-01-26T11:09:21.850Z,8.00
2019-01-26T11:12:02.824Z,8.00
2019-01-26T11:14:43.966Z,8.00
2019-01-26T11:17:24.892Z,8.00
2019-01-26T11:20:05.996Z,8.00
2019-01-26T11:22:47.242Z,8.00
2019-01-26T11:25:27.842Z,7.90
2019-01-26T11:28:08.501Z,7.90
2019-01-26T11:33:31.612Z,7.90
2019-01-26T11:36:12.514Z,8.00
2019-01-26T11:38:53.112Z,8.00
2019-01-26T11:44:16.642Z,8.00
2019-01-26T11:47:02.909Z,8.00
2019-01-26T11:52:39.007Z,8.10
2019-01-26T11:55:39.347Z,8.00
2019-01-26T11:58:20.503Z,8.00
2019-01-26T12:04:35.169Z,7.90
2019-01-26T12:07:17.237Z,7.90
2019-01-26T12:09:58.036Z,7.90
2019-01-26T12:12:57.790Z,7.90
2019-01-26T12:15:58.193Z,7.90
2019-01-26T12:18:39.488Z,7.80
2019-01-26T12:27:27.585Z,7.70
2019-01-26T12:30:15.837Z,7.60
2019-01-26T12:32:52.805Z,7.60
2019-01-26T12:35:22.411Z,7.60
2019-01-26T12:37:51.791Z,7.60
2019-01-26T12:40:21.298Z,7.60
2019-01-26T12:43:09.606Z,7.70
2019-01-26T12:45:50.455Z,7.80
2019-01-26T12:48:31.747Z,7.80
2019-01-26T12:51:13.127Z,7.90
2019-01-26T12:53:53.783Z,7.90
2019-01-26T12:56:34.965Z,7.80
2019-01-26T12:59:15.793Z,7.80
2019-01-26T13:01:56.621Z,7.80
2019-01-26T13:04:37.352Z,7.70
2019-01-26T13:07:17.101Z,7.70
2019-01-26T13:09:56.575Z,7.70
2019-01-26T13:12:44.839Z,7.70
2019-01-26T13:15:26.281Z,7.80
2019-01-26T13:18:09.938Z,7.80
2019-01-26T13:20:49.437Z,7.80
2019-01-26T13:23:37.773Z,7.80
2019-01-26T13:31:47.286Z,8.00
2019-01-26T13:34:28.690Z,7.90
2019-01-26T13:37:09.664Z,7.90
2019-01-26T13:39:58.236Z,8.00
2019-01-26T13:42:39.495Z,8.00
2019-01-26T13:45:23.836Z,8.00
2019-01-26T13:48:04.956Z,8.00
2019-01-26T13:50:46.246Z,8.00
2019-01-26T13:53:27.183Z,8.00
2019-01-26T13:56:08.442Z,8.00
2019-01-26T13:58:50.160Z,8.00
2019-01-26T14:01:31.466Z,8.00
2019-01-26T14:04:13.185Z,8.00
2019-01-26T14:06:54.606Z,8.00
2019-01-26T14:09:35.188Z,8.00
2019-01-26T14:12:16.353Z,7.90
2019-01-26T14:14:57.021Z,7.90
2019-01-26T14:17:38.453Z,7.80
2019-01-26T14:20:19.890Z,7.80
2019-01-26T14:23:01.439Z,7.70
2019-01-26T14:25:42.361Z,7.70
2019-01-26T14:28:23.023Z,7.70
2019-01-26T14:31:04.102Z,7.70
2019-01-26T14:33:44.902Z,7.70
2019-01-26T14:36:25.542Z,7.70
2019-01-26T14:41:53.888Z,7.70
2019-01-26T14:47:54.428Z,7.70
2019-01-26T14:50:35.934Z,7.80
2019-01-26T14:53:17.420Z,7.80
2019-01-26T14:55:59.261Z,7.80
2019-01-26T14:58:34.406Z,7.80
2019-01-26T15:01:38.769Z,7.80
2019-01-26T15:04:28.117Z,7.70
2019-01-26T15:07:09.808Z,7.70
2019-01-26T15:09:50.971Z,7.70
2019-01-26T15:12:32.219Z,7.70
2019-01-26T15:15:13.818Z,7.60
2019-01-26T15:17:55.096Z,7.60
2019-01-26T15:20:36.028Z,7.60
2019-01-26T15:23:16.769Z,7.50
2019-01-26T15:25:58.799Z,7.60
2019-01-26T15:28:43.001Z,7.60
2019-01-26T15:31:22.696Z,7.60
2019-01-26T15:34:04.142Z,7.60
2019-01-26T15:36:45.293Z,7.60
2019-01-26T15:39:26.048Z,7.60
2019-01-26T15:42:06.906Z,7.60
2019-01-26T15:44:49.622Z,7.60
2019-01-26T15:47:31.934Z,7.60
2019-01-26T15:50:13.414Z,7.60
2019-01-26T15:52:54.958Z,7.60
2019-01-26T15:55:35.618Z,7.60
2019-01-26T15:58:16.618Z,7.60
2019-01-26T16:00:58.143Z,7.50
2019-01-26T16:03:39.413Z,7.50
2019-01-26T16:06:20.832Z,7.50
2019-01-26T16:09:02.347Z,7.50
2019-01-26T16:11:43.766Z,7.40
2019-01-26T16:14:25.162Z,7.40
2019-01-26T16:17:05.792Z,7.40
2019-01-26T16:19:47.152Z,7.40
2019-01-26T16:22:28.465Z,7.40
2019-01-26T16:25:10.026Z,7.40
2019-01-26T16:27:52.225Z,7.40
2019-01-26T16:30:34.453Z,7.40
2019-01-26T16:33:15.258Z,7.30
2019-01-26T16:38:38.102Z,7.40
2019-01-26T16:41:19.525Z,7.30
2019-01-26T16:44:00.868Z,7.30
2019-01-26T16:46:41.715Z,7.30
2019-01-26T16:49:24.325Z,7.40
2019-01-26T16:52:05.568Z,7.40
2019-01-26T16:54:44.987Z,7.40
2019-01-26T16:57:26.169Z,7.40
2019-01-26T17:00:06.839Z,7.40
2019-01-26T17:02:48.211Z,7.40
2019-01-26T17:05:29.503Z,7.40
2019-01-26T17:08:10.179Z,7.40
2019-01-26T17:10:51.071Z,7.40
2019-01-26T17:13:32.422Z,7.40
2019-01-26T17:16:13.040Z,7.40
2019-01-26T17:18:56.471Z,7.40
2019-01-26T17:21:37.718Z,7.40
2019-01-26T17:24:19.470Z,7.40
2019-01-26T17:27:00.772Z,7.40
2019-01-26T17:29:45.180Z,7.40
2019-01-26T17:34:58.231Z,7.50
2019-01-26T17:37:46.958Z,7.50
2019-01-26T17:40:36.335Z,7.50
2019-01-26T17:43:05.941Z,7.50
2019-01-26T17:45:54.556Z,7.50
2019-01-26T17:48:42.952Z,7.50
2019-01-26T17:51:24.177Z,7.40
2019-01-26T18:00:16.542Z,7.60
2019-01-26T18:02:59.075Z,7.40
2019-01-26T18:05:39.777Z,7.40
2019-01-26T18:08:21.049Z,7.30
2019-01-26T18:11:02.002Z,7.30
2019-01-26T18:16:25.765Z,7.30
2019-01-26T18:19:07.205Z,7.30
2019-01-26T18:21:48.497Z,7.30
2019-01-26T18:24:29.348Z,7.30
2019-01-26T18:27:09.955Z,7.30
2019-01-26T18:29:51.273Z,7.30
2019-01-26T18:32:32.877Z,7.30
2019-01-26T18:35:14.209Z,7.30
2019-01-26T18:37:55.589Z,7.30
2019-01-26T18:40:37.122Z,7.30
2019-01-26T18:43:18.687Z,7.30
2019-01-26T18:45:59.925Z,7.20
2019-01-26T18:48:40.632Z,7.20
2019-01-26T18:51:22.052Z,7.30
2019-01-26T18:54:03.308Z,7.20
2019-01-26T18:56:44.488Z,7.30
2019-01-26T18:59:25.780Z,7.30
2019-01-26T19:02:07.835Z,7.30
2019-01-26T19:04:51.992Z,7.30
2019-01-26T19:07:33.567Z,7.30
2019-01-26T19:10:14.717Z,7.30
2019-01-26T19:12:56.058Z,7.30
2019-01-26T19:15:36.650Z,7.30
2019-01-26T19:18:18.772Z,7.40
2019-01-26T19:21:03.317Z,7.30
2019-01-26T19:23:42.086Z,7.30
2019-01-26T19:26:23.267Z,7.30
2019-01-26T19:29:11.723Z,7.30
2019-01-26T19:32:00.082Z,7.20
2019-01-26T19:34:41.229Z,7.30
2019-01-26T19:37:22.025Z,7.30
2019-01-26T19:40:02.808Z,7.30
2019-01-26T19:42:43.500Z,7.30
2019-01-26T19:45:25.350Z,7.30
2019-01-26T19:48:06.654Z,7.30
2019-01-26T19:50:47.667Z,7.20
2019-01-26T19:53:28.424Z,7.30
2019-01-26T19:56:09.322Z,7.30
2019-01-26T19:58:48.902Z,7.30
2019-01-26T20:01:29.680Z,7.30
2019-01-26T20:04:10.463Z,7.20
2019-01-26T20:06:52.081Z,7.20
2019-01-26T20:09:32.594Z,7.20
2019-01-26T20:12:13.235Z,7.20
2019-01-26T20:14:54.342Z,7.20
2019-01-26T20:17:35.545Z,7.10
2019-01-26T20:20:16.316Z,7.10
2019-01-26T20:22:56.967Z,7.10
2019-01-26T20:25:37.561Z,7.10
2019-01-26T20:28:18.765Z,7.10
2019-01-26T20:30:59.227Z,7.10
2019-01-26T20:33:41.003Z,7.10
2019-01-26T20:36:21.870Z,7.10
2019-01-26T20:39:02.813Z,7.10
2019-01-26T20:41:44.061Z,7.10
2019-01-26T20:44:24.701Z,7.10
2019-01-26T20:47:05.849Z,7.10
2019-01-26T20:49:46.394Z,7.10
2019-01-26T20:52:27.199Z,7.10
2019-01-26T20:55:08.441Z,7.10
2019-01-26T20:57:49.344Z,7.10
2019-01-26T21:00:29.883Z,7.10
2019-01-26T21:03:10.673Z,7.10
2019-01-26T21:05:50.549Z,7.10
2019-01-26T21:11:29.719Z,7.10
2019-01-26T21:14:10.311Z,7.10
2019-01-26T21:16:51.044Z,7.10
2019-01-26T21:19:31.953Z,7.10
2019-01-26T21:22:11.498Z,7.10
2019-01-26T21:25:00.091Z,7.10
2019-01-26T21:27:41.783Z,7.00
2019-01-26T21:30:23.073Z,7.00
2019-01-26T21:33:05.313Z,7.00
2019-01-26T21:35:46.266Z,7.00
2019-01-26T21:38:27.283Z,7.00
2019-01-26T21:41:08.854Z,7.00
2019-01-26T21:43:49.854Z,7.00
2019-01-26T21:46:30.730Z,7.00
2019-01-26T21:49:11.448Z,7.00
2019-01-26T21:51:50.923Z,7.00
2019-01-26T21:54:31.700Z,6.80
2019-01-26T21:57:13.080Z,7.00
2019-01-26T21:59:53.708Z,7.00
2019-01-26T22:05:18.971Z,7.00
2019-01-26T22:08:00.213Z,7.00
2019-01-26T22:10:40.902Z,7.00
2019-01-26T22:13:21.512Z,7.00
2019-01-26T22:16:03.816Z,7.00
2019-01-26T22:18:44.683Z,7.00
2019-01-26T22:21:26.270Z,7.00
2019-01-26T22:24:06.976Z,7.00
2019-01-26T22:26:48.554Z,7.00
2019-01-26T22:29:31.369Z,7.00
2019-01-26T22:32:12.159Z,7.00
2019-01-26T22:38:06.074Z,7.00
2019-01-26T22:40:46.724Z,7.00
2019-01-26T22:43:16.134Z,7.10
2019-01-26T22:45:45.699Z,7.00
2019-01-26T22:48:34.067Z,7.10
2019-01-26T22:51:22.385Z,7.10
2019-01-26T22:54:03.301Z,7.10
2019-01-26T22:56:44.625Z,7.10
2019-01-26T22:59:25.235Z,7.00
2019-01-26T23:02:05.115Z,7.10
2019-01-26T23:04:46.329Z,7.00
2019-01-26T23:07:36.293Z,7.00
2019-01-26T23:10:16.998Z,7.00
2019-01-26T23:12:59.549Z,7.00
2019-01-26T23:15:40.903Z,7.00
2019-01-26T23:18:22.399Z,6.90
2019-01-26T23:21:03.546Z,6.90
2019-01-26T23:23:44.616Z,7.00
2019-01-26T23:26:25.233Z,6.90
2019-01-26T23:29:06.347Z,6.90
2019-01-26T23:31:47.736Z,6.90
2019-01-26T23:34:29.138Z,6.90
2019-01-26T23:37:09.604Z,6.90
2019-01-26T23:39:51.447Z,6.80
2019-01-26T23:42:32.668Z,6.90
2019-01-26T23:45:13.642Z,6.80
2019-01-26T23:47:54.750Z,6.80
2019-01-26T23:50:36.086Z,6.80
2019-01-26T23:53:18.176Z,6.80
2019-01-26T23:55:59.045Z,6.80
2019-01-26T23:58:40.361Z,6.80
